This is the latest recevied weather packets stored in our database for station/object N3FU-13. If no packets are shown the sender has not sent any weather packets the latest 10 day(s).
| Time | Temp. | Humidity | Pressure | Rain* | Wind** | Luminosity | Snow |
|---|---|---|---|---|---|---|---|
| 1777393640 | 33.33° C | 47% | 1019.5 hPa | 0 mm | - | - | - |
| 1777392740 | 32.78° C | 50% | 1019.5 hPa | 0 mm | - | - | - |
| 1777391840 | 32.22° C | 53% | 1019.8 hPa | 0 mm | - | - | - |
| 1777390940 | 31.11° C | 57% | 1019.9 hPa | 0 mm | - | - | - |
| 1777390040 | 30.56° C | 60% | 1019.8 hPa | 0 mm | - | - | - |
| 1777389140 | 29.44° C | 65% | 1019.8 hPa | 0 mm | - | - | - |
| 1777388240 | 28.89° C | 67% | 1019.9 hPa | 0 mm | - | - | - |
| 1777387340 | 27.78° C | 70% | 1019.8 hPa | 0 mm | - | - | - |
| 1777386440 | 27.78° C | 72% | 1019.7 hPa | 0 mm | - | - | - |
| 1777385540 | 26.67° C | 75% | 1019.6 hPa | 0 mm | - | - | - |
| 1777384640 | 26.11° C | 77% | 1019.6 hPa | 0 mm | - | - | - |
| 1777383740 | 25.56° C | 79% | 1019.6 hPa | 0 mm | - | - | - |
| 1777382840 | 24.44° C | 83% | 1019.6 hPa | 0 mm | - | - | - |
| 1777381940 | 23.89° C | 87% | 1019.5 hPa | 0 mm | - | - | - |
| 1777381084 | 22.78° C | 91% | 1019.4 hPa | 0 mm | - | - | - |
| 1777381040 | 22.78° C | 91% | 1019.4 hPa | 0 mm | - | - | - |
| 1777380141 | 22.22° C | 92% | 1019.2 hPa | 0 mm | - | - | - |
| 1777379240 | 21.67° C | 94% | 1019.1 hPa | 0 mm | - | - | - |
| 1777378340 | 20.56° C | 95% | 1019 hPa | 0 mm | - | - | - |
| 1777377441 | 20.56° C | 95% | 1019 hPa | 0 mm | - | - | - |
| 1777376541 | 20° C | 94% | 1018.7 hPa | 0 mm | - | - | - |
| 1777375641 | 20° C | 94% | 1018.5 hPa | 0 mm | - | - | - |
| 1777374741 | 20.56° C | 94% | 1018.5 hPa | 0 mm | - | - | - |
| 1777373841 | 20.56° C | 94% | 1018.3 hPa | 0 mm | - | - | - |
| 1777372941 | 20° C | 94% | 1018.2 hPa | 0 mm | - | - | - |
* Rain latest hour (hover to see other rain measurements)
** Current wind speed in m/s (hover to see current wind gust speed)